KSVC  Grant County  Airport

Silver City, New Mexico, United States

Add Bookmark
Status Useage IATA
Operational Public SVC
Latitude Longitude
32° 38' 11" N 108° 9' 22" W
32.636547 -108.156385
Local (DST -6) UTC (GMT -7)
Mar 5, 2015 11:37 Mar 5, 2015 18:37
Sunrise-Sunset Local UTC
Begin Civil Twilight 06:08 13:08
Sunrise 06:33 13:33
Sunset 06:14 01:14
End Civil Twilight 06:39 01:39

Current Weather

METAR Observed VFR
KSVC 051755Z AUTO 16005KT 10SM CLR 07/M10 A3040 Thu, Mar 5, 2015 @ 17:55 UTC
(42 Minutes ago)
Visual Flight Rules
Wind Visibility Clouds Conditions
160° at 5 knots (6 mph) 10 statute miles
  • Clear skies
  • No significant weather
Temperatures Readings Precipitation
Current Temp 7°C (45°F)
Dewpoint -10°C (14°F)
Humidity 29%
Altimeter 30.4"Hg
Sea Level Pressure 1029mb
Field Elevation 5443.01'
None Recorded

Additional weather within a 50nm radius of KSVC

Map ICAO Location
KDMN 31.5nm S (135°)
KLSB 32.6nm S (236°)

24 Hour Weather History

Loading
-

24 Hour Weather Graphs

Loading
-

CheckWX.com is intended as a tool to help pilots better visualize weather data. It is not intended as a substitute for an official weather briefing obtained from a Flight Service Station. CheckWX.com does not meet the FAA requirements for an official pre-flight weather briefing. Therefore, it's important that pilots still call and obtain an official FSS pre-flight weather briefing.